sensor_id;sensor_type;location;lat;lon;timestamp;P1;durP1;ratioP1;P2;durP2;ratioP2
60243;SDS011;46106;51.468;5.814;2022-12-15T00:01:30;26.23;;;13.55;;
60243;SDS011;46106;51.468;5.814;2022-12-15T00:04:14;33.63;;;14.07;;
60243;SDS011;46106;51.468;5.814;2022-12-15T00:06:58;33.50;;;14.93;;
60243;SDS011;46106;51.468;5.814;2022-12-15T00:09:42;31.48;;;14.52;;
60243;SDS011;46106;51.468;5.814;2022-12-15T00:12:26;33.55;;;14.48;;
60243;SDS011;46106;51.468;5.814;2022-12-15T00:15:12;36.90;;;13.98;;
60243;SDS011;46106;51.468;5.814;2022-12-15T00:17:56;32.45;;;14.77;;
60243;SDS011;46106;51.468;5.814;2022-12-15T00:20:40;33.78;;;13.70;;
60243;SDS011;46106;51.468;5.814;2022-12-15T00:23:29;32.63;;;14.45;;
60243;SDS011;46106;51.468;5.814;2022-12-15T00:26:13;33.22;;;14.20;;
60243;SDS011;46106;51.468;5.814;2022-12-15T00:28:57;32.17;;;13.90;;
60243;SDS011;46106;51.468;5.814;2022-12-15T00:31:41;31.40;;;14.02;;
60243;SDS011;46106;51.468;5.814;2022-12-15T00:34:25;31.25;;;13.68;;
60243;SDS011;46106;51.468;5.814;2022-12-15T00:37:09;31.30;;;12.18;;
60243;SDS011;46106;51.468;5.814;2022-12-15T00:39:55;32.03;;;14.73;;
60243;SDS011;46106;51.468;5.814;2022-12-15T00:42:26;29.92;;;14.70;;
60243;SDS011;46106;51.468;5.814;2022-12-15T00:44:55;32.25;;;15.00;;
60243;SDS011;46106;51.468;5.814;2022-12-15T00:47:21;36.10;;;14.40;;
60243;SDS011;46106;51.468;5.814;2022-12-15T00:49:47;30.33;;;14.65;;
60243;SDS011;46106;51.468;5.814;2022-12-15T00:52:32;37.50;;;14.32;;
60243;SDS011;46106;51.468;5.814;2022-12-15T00:55:20;45.10;;;15.93;;
60243;SDS011;46106;51.468;5.814;2022-12-15T00:58:04;29.25;;;13.68;;
60243;SDS011;46106;51.468;5.814;2022-12-15T01:00:48;32.58;;;15.48;;
60243;SDS011;46106;51.468;5.814;2022-12-15T01:03:32;36.35;;;15.00;;
60243;SDS011;46106;51.468;5.814;2022-12-15T01:06:18;40.45;;;17.05;;
60243;SDS011;46106;51.468;5.814;2022-12-15T01:09:04;42.85;;;15.68;;
60243;SDS011;46106;51.468;5.814;2022-12-15T01:11:49;33.30;;;14.23;;
60243;SDS011;46106;51.468;5.814;2022-12-15T01:14:34;36.20;;;13.88;;
60243;SDS011;46106;51.468;5.814;2022-12-15T01:17:18;40.33;;;16.48;;
60243;SDS011;46106;51.468;5.814;2022-12-15T01:20:03;37.53;;;15.65;;
60243;SDS011;46106;51.468;5.814;2022-12-15T01:22:50;38.42;;;15.48;;
60243;SDS011;46106;51.468;5.814;2022-12-15T01:25:19;35.53;;;14.60;;
60243;SDS011;46106;51.468;5.814;2022-12-15T01:27:46;35.08;;;14.70;;
60243;SDS011;46106;51.468;5.814;2022-12-15T01:30:13;38.97;;;15.50;;
60243;SDS011;46106;51.468;5.814;2022-12-15T01:32:40;29.10;;;14.55;;
60243;SDS011;46106;51.468;5.814;2022-12-15T01:35:09;32.25;;;15.55;;
60243;SDS011;46106;51.468;5.814;2022-12-15T01:37:35;42.40;;;16.33;;
60243;SDS011;46106;51.468;5.814;2022-12-15T01:40:01;38.17;;;16.50;;
60243;SDS011;46106;51.468;5.814;2022-12-15T01:42:45;30.02;;;14.32;;
60243;SDS011;46106;51.468;5.814;2022-12-15T01:45:35;35.85;;;15.98;;
60243;SDS011;46106;51.468;5.814;2022-12-15T01:48:40;34.17;;;15.93;;
60243;SDS011;46106;51.468;5.814;2022-12-15T01:56:31;39.03;;;16.20;;
60243;SDS011;46106;51.468;5.814;2022-12-15T01:59:00;32.45;;;13.73;;
60243;SDS011;46106;51.468;5.814;2022-12-15T02:01:27;35.45;;;16.20;;
60243;SDS011;46106;51.468;5.814;2022-12-15T02:03:54;34.42;;;15.15;;
60243;SDS011;46106;51.468;5.814;2022-12-15T02:06:21;35.78;;;15.43;;
60243;SDS011;46106;51.468;5.814;2022-12-15T02:08:49;36.60;;;15.40;;
60243;SDS011;46106;51.468;5.814;2022-12-15T02:14:24;30.00;;;14.23;;
60243;SDS011;46106;51.468;5.814;2022-12-15T02:22:43;37.72;;;15.88;;
60243;SDS011;46106;51.468;5.814;2022-12-15T02:25:39;35.03;;;16.08;;
60243;SDS011;46106;51.468;5.814;2022-12-15T02:28:29;32.53;;;15.25;;
60243;SDS011;46106;51.468;5.814;2022-12-15T02:31:27;33.33;;;15.45;;
60243;SDS011;46106;51.468;5.814;2022-12-15T02:37:23;36.97;;;14.13;;
60243;SDS011;46106;51.468;5.814;2022-12-15T02:40:00;32.47;;;16.38;;
60243;SDS011;46106;51.468;5.814;2022-12-15T02:42:27;29.08;;;13.40;;
60243;SDS011;46106;51.468;5.814;2022-12-15T02:44:59;32.38;;;15.50;;
60243;SDS011;46106;51.468;5.814;2022-12-15T02:47:37;33.13;;;16.55;;
60243;SDS011;46106;51.468;5.814;2022-12-15T02:50:23;41.22;;;18.08;;
60243;SDS011;46106;51.468;5.814;2022-12-15T02:55:57;43.00;;;18.10;;
60243;SDS011;46106;51.468;5.814;2022-12-15T03:04:02;36.75;;;16.65;;
60243;SDS011;46106;51.468;5.814;2022-12-15T03:06:30;40.15;;;17.90;;
60243;SDS011;46106;51.468;5.814;2022-12-15T03:08:55;32.58;;;14.55;;
60243;SDS011;46106;51.468;5.814;2022-12-15T03:11:21;42.88;;;16.13;;
60243;SDS011;46106;51.468;5.814;2022-12-15T03:13:46;45.97;;;17.35;;
60243;SDS011;46106;51.468;5.814;2022-12-15T03:16:12;39.20;;;18.38;;
60243;SDS011;46106;51.468;5.814;2022-12-15T03:18:37;39.28;;;18.33;;
60243;SDS011;46106;51.468;5.814;2022-12-15T03:21:07;37.92;;;18.30;;
60243;SDS011;46106;51.468;5.814;2022-12-15T03:23:33;35.15;;;17.30;;
60243;SDS011;46106;51.468;5.814;2022-12-15T03:25:58;40.17;;;17.52;;
60243;SDS011;46106;51.468;5.814;2022-12-15T03:28:24;40.90;;;18.80;;
60243;SDS011;46106;51.468;5.814;2022-12-15T03:30:49;32.20;;;15.70;;
60243;SDS011;46106;51.468;5.814;2022-12-15T03:33:15;39.60;;;17.73;;
60243;SDS011;46106;51.468;5.814;2022-12-15T03:35:42;37.65;;;18.80;;
60243;SDS011;46106;51.468;5.814;2022-12-15T03:38:07;43.78;;;18.70;;
60243;SDS011;46106;51.468;5.814;2022-12-15T03:40:32;37.95;;;17.70;;
60243;SDS011;46106;51.468;5.814;2022-12-15T03:42:58;43.00;;;18.80;;
60243;SDS011;46106;51.468;5.814;2022-12-15T03:45:25;40.33;;;17.20;;
60243;SDS011;46106;51.468;5.814;2022-12-15T03:47:56;43.38;;;17.67;;
60243;SDS011;46106;51.468;5.814;2022-12-15T03:50:27;37.15;;;17.20;;
60243;SDS011;46106;51.468;5.814;2022-12-15T03:52:55;39.78;;;17.63;;
60243;SDS011;46106;51.468;5.814;2022-12-15T03:55:25;41.27;;;17.97;;
60243;SDS011;46106;51.468;5.814;2022-12-15T03:57:56;40.30;;;18.15;;
60243;SDS011;46106;51.468;5.814;2022-12-15T04:00:24;32.40;;;14.82;;
60243;SDS011;46106;51.468;5.814;2022-12-15T04:02:50;48.33;;;16.17;;
60243;SDS011;46106;51.468;5.814;2022-12-15T04:05:19;36.95;;;17.33;;
60243;SDS011;46106;51.468;5.814;2022-12-15T04:07:54;37.92;;;16.38;;
60243;SDS011;46106;51.468;5.814;2022-12-15T04:10:22;37.70;;;16.43;;
60243;SDS011;46106;51.468;5.814;2022-12-15T04:12:55;46.67;;;19.25;;
60243;SDS011;46106;51.468;5.814;2022-12-15T04:15:21;37.53;;;18.83;;
60243;SDS011;46106;51.468;5.814;2022-12-15T04:17:47;41.25;;;16.77;;
60243;SDS011;46106;51.468;5.814;2022-12-15T04:20:13;39.42;;;18.20;;
60243;SDS011;46106;51.468;5.814;2022-12-15T04:22:40;33.45;;;16.40;;
60243;SDS011;46106;51.468;5.814;2022-12-15T04:25:09;41.67;;;17.50;;
60243;SDS011;46106;51.468;5.814;2022-12-15T04:27:55;41.95;;;18.42;;
60243;SDS011;46106;51.468;5.814;2022-12-15T04:30:41;40.53;;;17.52;;
60243;SDS011;46106;51.468;5.814;2022-12-15T04:33:29;33.28;;;16.55;;
60243;SDS011;46106;51.468;5.814;2022-12-15T04:36:25;35.33;;;14.85;;
60243;SDS011;46106;51.468;5.814;2022-12-15T04:39:09;33.35;;;16.13;;
60243;SDS011;46106;51.468;5.814;2022-12-15T04:41:53;42.00;;;17.33;;
60243;SDS011;46106;51.468;5.814;2022-12-15T04:44:40;39.35;;;15.88;;
60243;SDS011;46106;51.468;5.814;2022-12-15T04:47:26;37.92;;;17.55;;
60243;SDS011;46106;51.468;5.814;2022-12-15T04:50:10;41.58;;;18.00;;
60243;SDS011;46106;51.468;5.814;2022-12-15T04:52:54;37.08;;;17.33;;
60243;SDS011;46106;51.468;5.814;2022-12-15T04:55:38;41.78;;;18.42;;
60243;SDS011;46106;51.468;5.814;2022-12-15T04:58:22;37.63;;;17.17;;
60243;SDS011;46106;51.468;5.814;2022-12-15T05:01:06;43.42;;;18.13;;
60243;SDS011;46106;51.468;5.814;2022-12-15T05:03:50;35.17;;;16.23;;
60243;SDS011;46106;51.468;5.814;2022-12-15T05:06:35;40.03;;;17.90;;
60243;SDS011;46106;51.468;5.814;2022-12-15T05:09:22;34.97;;;16.65;;
60243;SDS011;46106;51.468;5.814;2022-12-15T05:12:06;45.78;;;19.48;;
60243;SDS011;46106;51.468;5.814;2022-12-15T05:14:50;38.75;;;17.10;;
60243;SDS011;46106;51.468;5.814;2022-12-15T05:17:34;46.65;;;21.33;;
60243;SDS011;46106;51.468;5.814;2022-12-15T05:20:19;43.53;;;19.73;;
60243;SDS011;46106;51.468;5.814;2022-12-15T05:23:03;38.58;;;18.52;;
60243;SDS011;46106;51.468;5.814;2022-12-15T05:25:47;40.85;;;19.33;;
60243;SDS011;46106;51.468;5.814;2022-12-15T05:28:31;41.95;;;20.15;;
60243;SDS011;46106;51.468;5.814;2022-12-15T05:31:15;38.40;;;19.63;;
60243;SDS011;46106;51.468;5.814;2022-12-15T05:33:59;52.03;;;20.73;;
60243;SDS011;46106;51.468;5.814;2022-12-15T05:36:25;46.78;;;21.33;;
60243;SDS011;46106;51.468;5.814;2022-12-15T05:38:50;41.85;;;19.45;;
60243;SDS011;46106;51.468;5.814;2022-12-15T05:41:20;59.60;;;22.42;;
60243;SDS011;46106;51.468;5.814;2022-12-15T05:43:46;41.17;;;21.05;;
60243;SDS011;46106;51.468;5.814;2022-12-15T05:46:12;44.10;;;21.13;;
60243;SDS011;46106;51.468;5.814;2022-12-15T05:48:42;50.30;;;21.80;;
60243;SDS011;46106;51.468;5.814;2022-12-15T05:51:09;57.30;;;22.35;;
60243;SDS011;46106;51.468;5.814;2022-12-15T05:53:37;46.58;;;20.55;;
60243;SDS011;46106;51.468;5.814;2022-12-15T05:56:07;47.88;;;20.67;;
60243;SDS011;46106;51.468;5.814;2022-12-15T05:58:35;44.88;;;20.00;;
60243;SDS011;46106;51.468;5.814;2022-12-15T06:01:11;51.45;;;21.95;;
60243;SDS011;46106;51.468;5.814;2022-12-15T06:03:39;55.92;;;19.85;;
60243;SDS011;46106;51.468;5.814;2022-12-15T06:06:05;41.53;;;18.25;;
60243;SDS011;46106;51.468;5.814;2022-12-15T06:08:33;46.65;;;19.70;;
60243;SDS011;46106;51.468;5.814;2022-12-15T06:11:00;43.35;;;19.17;;
60243;SDS011;46106;51.468;5.814;2022-12-15T06:13:27;47.10;;;21.42;;
60243;SDS011;46106;51.468;5.814;2022-12-15T06:15:59;36.47;;;19.73;;
60243;SDS011;46106;51.468;5.814;2022-12-15T06:18:30;43.83;;;19.95;;
60243;SDS011;46106;51.468;5.814;2022-12-15T06:23:31;41.13;;;19.52;;
60243;SDS011;46106;51.468;5.814;2022-12-15T06:25:57;37.45;;;15.93;;
60243;SDS011;46106;51.468;5.814;2022-12-15T06:28:26;36.75;;;17.27;;
60243;SDS011;46106;51.468;5.814;2022-12-15T06:31:00;42.25;;;17.80;;
60243;SDS011;46106;51.468;5.814;2022-12-15T06:33:28;44.58;;;17.83;;
60243;SDS011;46106;51.468;5.814;2022-12-15T06:36:00;39.53;;;17.58;;
60243;SDS011;46106;51.468;5.814;2022-12-15T06:38:34;49.25;;;19.88;;
60243;SDS011;46106;51.468;5.814;2022-12-15T06:41:06;42.72;;;17.98;;
60243;SDS011;46106;51.468;5.814;2022-12-15T06:43:32;43.38;;;19.20;;
60243;SDS011;46106;51.468;5.814;2022-12-15T06:45:59;44.78;;;18.38;;
60243;SDS011;46106;51.468;5.814;2022-12-15T06:48:26;39.95;;;18.20;;
60243;SDS011;46106;51.468;5.814;2022-12-15T06:50:52;44.13;;;17.80;;
60243;SDS011;46106;51.468;5.814;2022-12-15T06:53:18;46.40;;;16.88;;
60243;SDS011;46106;51.468;5.814;2022-12-15T06:55:48;42.90;;;18.75;;
60243;SDS011;46106;51.468;5.814;2022-12-15T06:58:15;40.00;;;17.38;;
60243;SDS011;46106;51.468;5.814;2022-12-15T07:00:42;45.22;;;19.42;;
60243;SDS011;46106;51.468;5.814;2022-12-15T07:03:11;45.38;;;19.83;;
60243;SDS011;46106;51.468;5.814;2022-12-15T07:05:39;38.42;;;18.23;;
60243;SDS011;46106;51.468;5.814;2022-12-15T07:08:07;41.55;;;19.85;;
60243;SDS011;46106;51.468;5.814;2022-12-15T07:10:36;40.80;;;18.70;;
60243;SDS011;46106;51.468;5.814;2022-12-15T07:13:08;40.58;;;18.77;;
60243;SDS011;46106;51.468;5.814;2022-12-15T07:15:35;40.72;;;18.70;;
60243;SDS011;46106;51.468;5.814;2022-12-15T07:18:01;40.72;;;17.55;;
60243;SDS011;46106;51.468;5.814;2022-12-15T07:20:39;47.42;;;18.55;;
60243;SDS011;46106;51.468;5.814;2022-12-15T07:23:04;43.40;;;19.55;;
60243;SDS011;46106;51.468;5.814;2022-12-15T07:25:37;38.20;;;17.42;;
60243;SDS011;46106;51.468;5.814;2022-12-15T07:28:04;40.45;;;19.88;;
60243;SDS011;46106;51.468;5.814;2022-12-15T07:30:30;42.53;;;19.58;;
60243;SDS011;46106;51.468;5.814;2022-12-15T07:32:57;39.08;;;18.85;;
60243;SDS011;46106;51.468;5.814;2022-12-15T07:35:23;39.42;;;19.60;;
60243;SDS011;46106;51.468;5.814;2022-12-15T07:37:48;43.60;;;20.65;;
60243;SDS011;46106;51.468;5.814;2022-12-15T07:40:14;43.17;;;19.58;;
60243;SDS011;46106;51.468;5.814;2022-12-15T07:42:40;43.17;;;19.15;;
60243;SDS011;46106;51.468;5.814;2022-12-15T07:45:06;46.65;;;19.80;;
60243;SDS011;46106;51.468;5.814;2022-12-15T07:47:31;42.33;;;18.15;;
60243;SDS011;46106;51.468;5.814;2022-12-15T07:49:57;46.97;;;19.75;;
60243;SDS011;46106;51.468;5.814;2022-12-15T07:52:23;43.17;;;18.63;;
60243;SDS011;46106;51.468;5.814;2022-12-15T07:54:49;43.90;;;19.35;;
60243;SDS011;46106;51.468;5.814;2022-12-15T07:57:15;45.47;;;20.42;;
60243;SDS011;46106;51.468;5.814;2022-12-15T07:59:40;41.38;;;19.17;;
60243;SDS011;46106;51.468;5.814;2022-12-15T08:02:08;40.97;;;19.00;;
60243;SDS011;46106;51.468;5.814;2022-12-15T08:04:34;41.00;;;20.60;;
60243;SDS011;46106;51.468;5.814;2022-12-15T08:07:00;48.72;;;19.48;;
60243;SDS011;46106;51.468;5.814;2022-12-15T08:09:25;41.85;;;20.38;;
60243;SDS011;46106;51.468;5.814;2022-12-15T08:11:50;48.10;;;19.10;;
60243;SDS011;46106;51.468;5.814;2022-12-15T08:14:16;47.22;;;20.65;;
60243;SDS011;46106;51.468;5.814;2022-12-15T08:16:42;49.28;;;19.50;;
60243;SDS011;46106;51.468;5.814;2022-12-15T08:19:11;49.25;;;19.65;;
60243;SDS011;46106;51.468;5.814;2022-12-15T08:21:39;55.13;;;21.52;;
60243;SDS011;46106;51.468;5.814;2022-12-15T08:24:06;48.22;;;20.58;;
60243;SDS011;46106;51.468;5.814;2022-12-15T08:26:32;49.47;;;21.42;;
60243;SDS011;46106;51.468;5.814;2022-12-15T08:29:02;44.75;;;20.70;;
60243;SDS011;46106;51.468;5.814;2022-12-15T08:31:32;45.45;;;21.00;;
60243;SDS011;46106;51.468;5.814;2022-12-15T08:33:58;47.50;;;21.00;;
60243;SDS011;46106;51.468;5.814;2022-12-15T08:36:27;45.67;;;20.20;;
60243;SDS011;46106;51.468;5.814;2022-12-15T08:38:55;49.55;;;20.80;;
60243;SDS011;46106;51.468;5.814;2022-12-15T08:41:22;48.75;;;21.98;;
60243;SDS011;46106;51.468;5.814;2022-12-15T08:43:51;44.60;;;20.52;;
60243;SDS011;46106;51.468;5.814;2022-12-15T08:46:19;55.78;;;22.27;;
60243;SDS011;46106;51.468;5.814;2022-12-15T08:48:46;48.80;;;20.55;;
60243;SDS011;46106;51.468;5.814;2022-12-15T08:51:12;40.35;;;20.35;;
60243;SDS011;46106;51.468;5.814;2022-12-15T08:53:38;49.20;;;20.08;;
60243;SDS011;46106;51.468;5.814;2022-12-15T08:56:04;48.10;;;21.67;;
60243;SDS011;46106;51.468;5.814;2022-12-15T08:58:32;48.20;;;22.42;;
60243;SDS011;46106;51.468;5.814;2022-12-15T09:00:58;52.38;;;22.33;;
60243;SDS011;46106;51.468;5.814;2022-12-15T09:03:26;51.05;;;22.25;;
60243;SDS011;46106;51.468;5.814;2022-12-15T09:05:51;53.72;;;23.67;;
60243;SDS011;46106;51.468;5.814;2022-12-15T09:08:16;51.85;;;22.17;;
60243;SDS011;46106;51.468;5.814;2022-12-15T09:10:43;46.42;;;22.70;;
60243;SDS011;46106;51.468;5.814;2022-12-15T09:13:09;50.60;;;21.65;;
60243;SDS011;46106;51.468;5.814;2022-12-15T09:15:34;47.92;;;23.00;;
60243;SDS011;46106;51.468;5.814;2022-12-15T09:17:59;44.75;;;22.17;;
60243;SDS011;46106;51.468;5.814;2022-12-15T09:20:25;59.17;;;23.48;;
60243;SDS011;46106;51.468;5.814;2022-12-15T09:22:50;52.90;;;23.73;;
60243;SDS011;46106;51.468;5.814;2022-12-15T09:25:16;54.67;;;25.15;;
60243;SDS011;46106;51.468;5.814;2022-12-15T09:27:41;52.28;;;24.40;;
60243;SDS011;46106;51.468;5.814;2022-12-15T09:30:07;54.28;;;25.08;;
60243;SDS011;46106;51.468;5.814;2022-12-15T09:32:33;69.47;;;25.15;;
60243;SDS011;46106;51.468;5.814;2022-12-15T09:34:58;42.38;;;20.40;;
60243;SDS011;46106;51.468;5.814;2022-12-15T09:37:25;61.35;;;25.45;;
60243;SDS011;46106;51.468;5.814;2022-12-15T09:39:51;54.92;;;24.95;;
60243;SDS011;46106;51.468;5.814;2022-12-15T09:42:34;56.95;;;24.92;;
60243;SDS011;46106;51.468;5.814;2022-12-15T09:45:05;53.38;;;24.60;;
60243;SDS011;46106;51.468;5.814;2022-12-15T09:47:41;55.80;;;24.13;;
60243;SDS011;46106;51.468;5.814;2022-12-15T09:50:16;48.42;;;23.38;;
60243;SDS011;46106;51.468;5.814;2022-12-15T09:52:47;48.40;;;22.02;;
60243;SDS011;46106;51.468;5.814;2022-12-15T09:55:23;56.92;;;24.42;;
60243;SDS011;46106;51.468;5.814;2022-12-15T09:58:38;52.55;;;23.33;;
60243;SDS011;46106;51.468;5.814;2022-12-15T10:00:47;37.08;;;19.05;;
60243;SDS011;46106;51.468;5.814;2022-12-15T10:13:48;49.55;;;23.80;;
60243;SDS011;46106;51.468;5.814;2022-12-15T10:21:55;52.85;;;24.63;;
60243;SDS011;46106;51.468;5.814;2022-12-15T10:24:22;55.30;;;24.05;;
60243;SDS011;46106;51.468;5.814;2022-12-15T10:26:58;48.03;;;23.52;;
60243;SDS011;46106;51.468;5.814;2022-12-15T10:29:42;55.78;;;26.40;;
60243;SDS011;46106;51.468;5.814;2022-12-15T10:32:19;53.92;;;23.42;;
60243;SDS011;46106;51.468;5.814;2022-12-15T10:34:54;52.22;;;23.90;;
60243;SDS011;46106;51.468;5.814;2022-12-15T10:37:20;58.72;;;24.55;;
60243;SDS011;46106;51.468;5.814;2022-12-15T10:39:46;49.17;;;23.67;;
60243;SDS011;46106;51.468;5.814;2022-12-15T10:42:15;46.80;;;22.17;;
60243;SDS011;46106;51.468;5.814;2022-12-15T10:44:49;51.10;;;24.60;;
60243;SDS011;46106;51.468;5.814;2022-12-15T10:52:21;48.13;;;22.48;;
60243;SDS011;46106;51.468;5.814;2022-12-15T10:54:50;50.35;;;24.55;;
60243;SDS011;46106;51.468;5.814;2022-12-15T10:57:22;51.40;;;23.92;;
60243;SDS011;46106;51.468;5.814;2022-12-15T11:02:39;53.20;;;23.30;;
60243;SDS011;46106;51.468;5.814;2022-12-15T11:07:43;54.88;;;25.38;;
60243;SDS011;46106;51.468;5.814;2022-12-15T11:10:15;53.67;;;25.10;;
60243;SDS011;46106;51.468;5.814;2022-12-15T11:12:41;55.70;;;25.98;;
60243;SDS011;46106;51.468;5.814;2022-12-15T11:20:33;57.00;;;25.55;;
60243;SDS011;46106;51.468;5.814;2022-12-15T11:23:04;51.30;;;24.40;;
60243;SDS011;46106;51.468;5.814;2022-12-15T11:28:11;55.83;;;26.55;;
60243;SDS011;46106;51.468;5.814;2022-12-15T11:30:52;59.95;;;27.40;;
60243;SDS011;46106;51.468;5.814;2022-12-15T11:33:30;56.47;;;27.13;;
60243;SDS011;46106;51.468;5.814;2022-12-15T11:38:57;48.88;;;24.60;;
60243;SDS011;46106;51.468;5.814;2022-12-15T11:47:40;47.03;;;24.52;;
60243;SDS011;46106;51.468;5.814;2022-12-15T12:15:31;43.45;;;23.10;;
60243;SDS011;46106;51.468;5.814;2022-12-15T12:18:09;52.45;;;23.00;;
60243;SDS011;46106;51.468;5.814;2022-12-15T12:20:52;50.53;;;23.88;;
60243;SDS011;46106;51.468;5.814;2022-12-15T12:28:43;50.75;;;22.27;;
60243;SDS011;46106;51.468;5.814;2022-12-15T12:33:57;48.70;;;22.83;;
60243;SDS011;46106;51.468;5.814;2022-12-15T12:36:32;55.28;;;24.15;;
60243;SDS011;46106;51.468;5.814;2022-12-15T12:38:58;54.13;;;24.77;;
60243;SDS011;46106;51.468;5.814;2022-12-15T12:46:54;48.75;;;24.67;;
60243;SDS011;46106;51.468;5.814;2022-12-15T12:51:57;51.13;;;23.40;;
60243;SDS011;46106;51.468;5.814;2022-12-15T12:59:39;55.72;;;24.50;;
60243;SDS011;46106;51.468;5.814;2022-12-15T13:04:46;53.00;;;24.50;;
60243;SDS011;46106;51.468;5.814;2022-12-15T13:10:19;54.67;;;23.23;;
60243;SDS011;46106;51.468;5.814;2022-12-15T13:17:52;54.92;;;25.15;;
60243;SDS011;46106;51.468;5.814;2022-12-15T13:20:28;51.83;;;24.83;;
60243;SDS011;46106;51.468;5.814;2022-12-15T13:23:16;45.65;;;22.42;;
60243;SDS011;46106;51.468;5.814;2022-12-15T13:36:08;41.83;;;20.65;;
60243;SDS011;46106;51.468;5.814;2022-12-15T13:38:51;40.60;;;19.35;;
60243;SDS011;46106;51.468;5.814;2022-12-15T13:41:22;51.78;;;23.25;;
60243;SDS011;46106;51.468;5.814;2022-12-15T13:43:47;49.38;;;22.17;;
60243;SDS011;46106;51.468;5.814;2022-12-15T13:46:22;49.67;;;23.10;;
60243;SDS011;46106;51.468;5.814;2022-12-15T13:48:50;51.15;;;23.92;;
60243;SDS011;46106;51.468;5.814;2022-12-15T13:51:30;49.20;;;24.70;;
60243;SDS011;46106;51.468;5.814;2022-12-15T13:59:30;47.88;;;24.13;;
60243;SDS011;46106;51.468;5.814;2022-12-15T14:01:58;50.83;;;24.88;;
60243;SDS011;46106;51.468;5.814;2022-12-15T14:04:23;58.38;;;24.90;;
60243;SDS011;46106;51.468;5.814;2022-12-15T14:09:24;51.75;;;22.65;;
60243;SDS011;46106;51.468;5.814;2022-12-15T14:11:53;50.08;;;23.08;;
60243;SDS011;46106;51.468;5.814;2022-12-15T14:14:21;48.42;;;24.63;;
60243;SDS011;46106;51.468;5.814;2022-12-15T14:17:04;48.42;;;24.15;;
60243;SDS011;46106;51.468;5.814;2022-12-15T14:19:36;53.25;;;23.92;;
60243;SDS011;46106;51.468;5.814;2022-12-15T14:22:15;55.22;;;23.55;;
60243;SDS011;46106;51.468;5.814;2022-12-15T14:24:43;41.38;;;22.77;;
60243;SDS011;46106;51.468;5.814;2022-12-15T14:27:23;56.38;;;24.48;;
60243;SDS011;46106;51.468;5.814;2022-12-15T14:30:36;46.83;;;24.02;;
60243;SDS011;46106;51.468;5.814;2022-12-15T14:32:43;47.92;;;23.67;;
60243;SDS011;46106;51.468;5.814;2022-12-15T14:35:13;45.25;;;24.33;;
60243;SDS011;46106;51.468;5.814;2022-12-15T14:37:47;53.08;;;26.35;;
60243;SDS011;46106;51.468;5.814;2022-12-15T14:40:14;54.45;;;25.00;;
60243;SDS011;46106;51.468;5.814;2022-12-15T14:42:41;48.88;;;24.30;;
60243;SDS011;46106;51.468;5.814;2022-12-15T14:45:17;50.30;;;25.27;;
60243;SDS011;46106;51.468;5.814;2022-12-15T14:47:49;48.22;;;23.88;;
60243;SDS011;46106;51.468;5.814;2022-12-15T14:50:17;60.25;;;26.85;;
60243;SDS011;46106;51.468;5.814;2022-12-15T14:52:45;49.25;;;25.08;;
60243;SDS011;46106;51.468;5.814;2022-12-15T14:58:00;58.88;;;25.63;;
60243;SDS011;46106;51.468;5.814;2022-12-15T15:05:39;47.80;;;25.98;;
60243;SDS011;46106;51.468;5.814;2022-12-15T15:08:13;57.70;;;27.42;;
60243;SDS011;46106;51.468;5.814;2022-12-15T15:10:43;52.95;;;26.40;;
60243;SDS011;46106;51.468;5.814;2022-12-15T15:13:19;54.33;;;27.50;;
60243;SDS011;46106;51.468;5.814;2022-12-15T15:15:56;52.22;;;24.50;;
60243;SDS011;46106;51.468;5.814;2022-12-15T15:18:28;52.67;;;25.73;;
60243;SDS011;46106;51.468;5.814;2022-12-15T15:21:03;48.75;;;26.02;;
60243;SDS011;46106;51.468;5.814;2022-12-15T15:23:31;54.13;;;25.20;;
60243;SDS011;46106;51.468;5.814;2022-12-15T15:26:07;55.45;;;27.52;;
60243;SDS011;46106;51.468;5.814;2022-12-15T15:28:38;57.80;;;26.13;;
60243;SDS011;46106;51.468;5.814;2022-12-15T15:31:25;63.42;;;27.35;;
60243;SDS011;46106;51.468;5.814;2022-12-15T15:33:53;54.53;;;27.17;;
60243;SDS011;46106;51.468;5.814;2022-12-15T15:36:23;53.88;;;26.55;;
60243;SDS011;46106;51.468;5.814;2022-12-15T15:38:56;53.15;;;26.30;;
60243;SDS011;46106;51.468;5.814;2022-12-15T15:41:26;57.08;;;27.33;;
60243;SDS011;46106;51.468;5.814;2022-12-15T15:44:00;72.68;;;29.02;;
60243;SDS011;46106;51.468;5.814;2022-12-15T15:46:30;63.55;;;30.10;;
60243;SDS011;46106;51.468;5.814;2022-12-15T15:49:02;61.60;;;30.05;;
60243;SDS011;46106;51.468;5.814;2022-12-15T15:51:32;63.40;;;28.30;;
60243;SDS011;46106;51.468;5.814;2022-12-15T15:53:59;63.47;;;28.60;;
60243;SDS011;46106;51.468;5.814;2022-12-15T15:56:27;68.30;;;30.17;;
60243;SDS011;46106;51.468;5.814;2022-12-15T15:58:55;67.40;;;31.48;;
60243;SDS011;46106;51.468;5.814;2022-12-15T16:01:21;60.55;;;30.38;;
60243;SDS011;46106;51.468;5.814;2022-12-15T16:03:46;64.65;;;29.58;;
60243;SDS011;46106;51.468;5.814;2022-12-15T16:06:18;64.03;;;28.05;;
60243;SDS011;46106;51.468;5.814;2022-12-15T16:08:48;57.33;;;27.73;;
60243;SDS011;46106;51.468;5.814;2022-12-15T16:11:15;54.97;;;25.83;;
60243;SDS011;46106;51.468;5.814;2022-12-15T16:13:41;58.55;;;28.17;;
60243;SDS011;46106;51.468;5.814;2022-12-15T16:16:13;57.10;;;27.77;;
60243;SDS011;46106;51.468;5.814;2022-12-15T16:18:42;57.33;;;26.25;;
60243;SDS011;46106;51.468;5.814;2022-12-15T16:21:14;54.08;;;26.65;;
60243;SDS011;46106;51.468;5.814;2022-12-15T16:23:45;56.97;;;26.42;;
60243;SDS011;46106;51.468;5.814;2022-12-15T16:29:35;54.00;;;26.33;;
60243;SDS011;46106;51.468;5.814;2022-12-15T16:32:03;52.00;;;25.73;;
60243;SDS011;46106;51.468;5.814;2022-12-15T16:34:30;58.40;;;27.55;;
60243;SDS011;46106;51.468;5.814;2022-12-15T16:36:55;58.67;;;26.83;;
60243;SDS011;46106;51.468;5.814;2022-12-15T16:39:25;61.45;;;27.60;;
60243;SDS011;46106;51.468;5.814;2022-12-15T16:41:53;58.33;;;27.87;;
60243;SDS011;46106;51.468;5.814;2022-12-15T16:44:20;64.07;;;28.83;;
60243;SDS011;46106;51.468;5.814;2022-12-15T16:46:46;57.75;;;26.63;;
60243;SDS011;46106;51.468;5.814;2022-12-15T16:49:12;67.38;;;28.58;;
60243;SDS011;46106;51.468;5.814;2022-12-15T16:51:38;73.78;;;28.80;;
60243;SDS011;46106;51.468;5.814;2022-12-15T16:54:06;60.90;;;27.85;;
60243;SDS011;46106;51.468;5.814;2022-12-15T16:56:40;58.30;;;26.25;;
60243;SDS011;46106;51.468;5.814;2022-12-15T16:59:13;64.90;;;26.90;;
60243;SDS011;46106;51.468;5.814;2022-12-15T17:01:41;102.25;;;51.05;;
60243;SDS011;46106;51.468;5.814;2022-12-15T17:04:06;56.60;;;26.73;;
60243;SDS011;46106;51.468;5.814;2022-12-15T17:06:32;61.00;;;27.42;;
60243;SDS011;46106;51.468;5.814;2022-12-15T17:08:58;56.13;;;25.05;;
60243;SDS011;46106;51.468;5.814;2022-12-15T17:11:26;62.75;;;25.90;;
60243;SDS011;46106;51.468;5.814;2022-12-15T17:13:55;55.03;;;24.20;;
60243;SDS011;46106;51.468;5.814;2022-12-15T17:16:23;55.40;;;24.15;;
60243;SDS011;46106;51.468;5.814;2022-12-15T17:18:50;62.20;;;23.65;;
60243;SDS011;46106;51.468;5.814;2022-12-15T17:21:20;55.13;;;24.00;;
60243;SDS011;46106;51.468;5.814;2022-12-15T17:23:51;55.88;;;22.20;;
60243;SDS011;46106;51.468;5.814;2022-12-15T17:26:26;47.05;;;21.95;;
60243;SDS011;46106;51.468;5.814;2022-12-15T17:28:55;47.58;;;23.40;;